createdAt,value
2019-03-12T00:02:08.466Z,3.43
2019-03-12T00:04:59.992Z,3.30
2019-03-12T00:07:51.773Z,3.33
2019-03-12T00:10:43.296Z,3.53
2019-03-12T00:13:34.879Z,3.97
2019-03-12T00:16:26.529Z,4.03
2019-03-12T00:19:18.185Z,3.50
2019-03-12T00:22:09.766Z,3.07
2019-03-12T00:25:01.301Z,3.80
2019-03-12T00:27:53.515Z,4.17
2019-03-12T00:30:44.905Z,3.00
2019-03-12T00:33:36.738Z,3.57
2019-03-12T00:36:28.399Z,3.60
2019-03-12T00:39:20.063Z,4.40
2019-03-12T00:42:12.318Z,4.07
2019-03-12T00:45:03.816Z,4.10
2019-03-12T00:47:55.161Z,3.70
2019-03-12T00:50:46.802Z,4.20
2019-03-12T00:53:38.243Z,4.20
2019-03-12T00:56:29.961Z,4.20
2019-03-12T00:59:21.338Z,3.93
2019-03-12T01:02:13.519Z,4.30
2019-03-12T01:05:05.197Z,3.43
2019-03-12T01:07:56.914Z,3.50
2019-03-12T01:10:48.267Z,3.87
2019-03-12T01:13:39.632Z,4.87
2019-03-12T01:16:30.912Z,3.93
2019-03-12T01:19:22.401Z,4.40
2019-03-12T01:22:13.785Z,4.73
2019-03-12T01:25:06.376Z,3.30
2019-03-12T01:27:57.936Z,3.63
2019-03-12T01:30:49.565Z,4.77
2019-03-12T01:33:40.968Z,3.63
2019-03-12T01:36:32.593Z,3.23
2019-03-12T01:39:24.695Z,4.57
2019-03-12T01:42:16.290Z,4.07
2019-03-12T01:45:10.259Z,3.30
2019-03-12T01:48:01.598Z,3.53
2019-03-12T01:50:53.072Z,3.60
2019-03-12T01:53:44.482Z,4.00
2019-03-12T01:56:36.098Z,3.87
2019-03-12T01:59:27.544Z,3.23
2019-03-12T02:02:19.113Z,3.77
2019-03-12T02:05:11.946Z,3.17
2019-03-12T02:08:03.443Z,3.23
2019-03-12T02:10:56.073Z,3.03
2019-03-12T02:13:47.429Z,3.37
2019-03-12T02:16:39.266Z,3.83
2019-03-12T02:19:30.809Z,4.07
2019-03-12T02:22:22.615Z,3.43
2019-03-12T02:25:15.771Z,3.27
2019-03-12T02:28:07.232Z,3.23
2019-03-12T02:30:58.667Z,3.07
2019-03-12T02:33:49.995Z,3.17
2019-03-12T02:36:41.512Z,3.33
2019-03-12T02:39:33.785Z,3.33
2019-03-12T02:42:25.185Z,3.30
2019-03-12T02:45:16.726Z,3.53
2019-03-12T02:48:08.089Z,3.27
2019-03-12T02:50:59.592Z,3.27
2019-03-12T02:53:51.079Z,3.17
2019-03-12T02:56:42.458Z,3.20
2019-03-12T02:59:33.908Z,3.70
2019-03-12T03:02:25.926Z,3.37
2019-03-12T03:05:17.544Z,3.10
2019-03-12T03:08:10.242Z,3.60
2019-03-12T03:11:02.481Z,3.00
2019-03-12T03:13:53.981Z,3.17
2019-03-12T03:16:45.584Z,3.57
2019-03-12T03:19:37.688Z,3.17
2019-03-12T03:22:29.122Z,2.90
2019-03-12T03:25:20.660Z,2.90
2019-03-12T03:28:12.028Z,2.90
2019-03-12T03:31:03.688Z,3.10
2019-03-12T03:33:56.090Z,2.97
2019-03-12T03:36:47.445Z,3.47
2019-03-12T03:39:39.017Z,2.97
2019-03-12T03:42:32.127Z,3.27
2019-03-12T03:45:23.995Z,3.40
2019-03-12T03:48:16.029Z,2.77
2019-03-12T03:51:07.443Z,3.50
2019-03-12T03:53:59.421Z,3.67
2019-03-12T03:56:51.699Z,2.63
2019-03-12T03:59:43.447Z,3.00
2019-03-12T04:02:35.456Z,2.77
2019-03-12T04:05:27.206Z,2.83
2019-03-12T04:08:18.856Z,3.17
2019-03-12T04:11:10.531Z,3.07
2019-03-12T04:14:01.870Z,3.23
2019-03-12T04:16:53.262Z,2.63
2019-03-12T04:19:44.677Z,3.40
2019-03-12T04:22:36.242Z,3.13
2019-03-12T04:25:27.862Z,3.43
2019-03-12T04:28:19.278Z,3.00
2019-03-12T04:31:10.642Z,3.43
2019-03-12T04:34:25.578Z,2.90
2019-03-12T04:37:16.991Z,3.33
2019-03-12T04:40:09.092Z,3.00
2019-03-12T04:43:00.577Z,2.63
2019-03-12T04:45:51.864Z,3.30
2019-03-12T04:48:43.450Z,3.00
2019-03-12T04:51:34.766Z,3.57
2019-03-12T04:54:26.125Z,2.97
2019-03-12T04:57:17.927Z,3.17
2019-03-12T05:00:13.238Z,3.17
2019-03-12T05:03:04.553Z,3.50
2019-03-12T05:05:55.883Z,3.33
2019-03-12T05:08:47.594Z,2.77
2019-03-12T05:11:39.930Z,4.20
2019-03-12T05:14:34.248Z,3.03
2019-03-12T05:17:32.771Z,2.47
2019-03-12T05:20:24.542Z,3.80
2019-03-12T05:23:16.368Z,3.73
2019-03-12T05:26:07.940Z,3.37
2019-03-12T05:28:59.687Z,2.90
2019-03-12T05:31:51.298Z,3.53
2019-03-12T05:34:42.995Z,3.07
2019-03-12T05:37:35.764Z,3.13
2019-03-12T05:40:27.364Z,3.47
2019-03-12T05:43:18.811Z,3.83
2019-03-12T05:46:10.233Z,4.03
2019-03-12T05:49:01.615Z,3.00
2019-03-12T05:51:53.221Z,3.20
2019-03-12T05:54:44.639Z,3.37
2019-03-12T05:57:36.052Z,2.97
2019-03-12T06:00:27.912Z,2.90
2019-03-12T06:03:19.646Z,3.93
2019-03-12T06:06:11.406Z,2.97
2019-03-12T06:09:05.538Z,3.77
2019-03-12T06:11:58.771Z,2.77
2019-03-12T06:14:50.773Z,3.20
2019-03-12T06:17:42.308Z,2.93
2019-03-12T06:20:33.642Z,3.43
2019-03-12T06:23:25.324Z,3.47
2019-03-12T06:26:16.699Z,3.13
2019-03-12T06:29:08.946Z,3.17
2019-03-12T06:32:26.298Z,2.97
2019-03-12T06:35:23.610Z,4.20
2019-03-12T06:38:33.795Z,3.33
2019-03-12T06:41:42.604Z,3.50
2019-03-12T06:44:38.530Z,3.33
2019-03-12T06:47:48.408Z,3.50
2019-03-12T06:50:47.254Z,3.23
2019-03-12T06:54:09.619Z,3.30
2019-03-12T06:57:38.456Z,4.33
2019-03-12T07:00:38.020Z,3.20
2019-03-12T07:03:49.713Z,2.90
2019-03-12T07:07:01.028Z,3.40
2019-03-12T07:09:59.512Z,2.87
2019-03-12T07:13:03.809Z,3.57
2019-03-12T07:16:13.045Z,3.47
2019-03-12T07:19:42.086Z,3.17
2019-03-12T07:23:10.513Z,4.07
2019-03-12T07:26:26.779Z,3.77
2019-03-12T07:29:27.537Z,3.23
2019-03-12T07:32:29.567Z,3.30
2019-03-12T07:35:46.265Z,2.80
2019-03-12T07:38:45.532Z,3.10
2019-03-12T07:41:54.170Z,2.93
2019-03-12T07:44:55.826Z,3.33
2019-03-12T07:48:01.910Z,3.70
2019-03-12T07:51:24.521Z,3.23
2019-03-12T07:54:28.534Z,3.93
2019-03-12T07:57:38.395Z,3.53
2019-03-12T08:00:48.671Z,3.73
2019-03-12T08:03:59.066Z,3.50
2019-03-12T08:07:01.729Z,3.60
2019-03-12T08:10:10.848Z,2.70
2019-03-12T08:13:15.899Z,2.90
2019-03-12T08:16:16.103Z,3.40
2019-03-12T08:19:36.370Z,3.13
2019-03-12T08:22:42.163Z,2.90
2019-03-12T08:25:39.622Z,2.90
2019-03-12T08:28:38.210Z,2.37
2019-03-12T08:31:48.816Z,2.83
2019-03-12T08:35:05.676Z,2.97
2019-03-12T08:38:12.078Z,2.07
2019-03-12T08:41:09.762Z,2.27
2019-03-12T08:44:26.968Z,2.37
2019-03-12T08:47:37.103Z,2.00
2019-03-12T08:50:45.156Z,2.47
2019-03-12T08:53:49.436Z,2.30
2019-03-12T08:56:57.149Z,2.70
2019-03-12T09:00:19.352Z,2.10
2019-03-12T09:03:45.225Z,2.40
2019-03-12T09:07:04.985Z,2.40
2019-03-12T09:10:16.769Z,2.57
2019-03-12T09:13:40.167Z,2.60
2019-03-12T09:16:40.073Z,2.07
2019-03-12T09:19:53.608Z,2.53
2019-03-12T09:22:54.692Z,2.50
2019-03-12T09:25:56.427Z,2.40
2019-03-12T09:29:02.338Z,3.30
2019-03-12T09:32:20.430Z,2.73
2019-03-12T09:35:30.873Z,3.47
2019-03-12T09:38:30.914Z,2.63
2019-03-12T09:41:47.598Z,2.23
2019-03-12T09:44:59.652Z,2.70
2019-03-12T09:48:00.953Z,2.73
2019-03-12T09:50:58.436Z,2.30
2019-03-12T09:54:12.234Z,2.67
2019-03-12T09:57:17.414Z,2.23
2019-03-12T10:00:19.996Z,2.20
2019-03-12T10:03:29.404Z,2.67
2019-03-12T10:06:48.749Z,2.47
2019-03-12T10:09:53.715Z,2.03
2019-03-12T10:13:22.460Z,2.77
2019-03-12T10:16:31.513Z,2.80
2019-03-12T10:19:39.493Z,2.73
2019-03-12T10:22:42.224Z,2.80
2019-03-12T10:25:53.180Z,2.40
2019-03-12T10:28:53.979Z,2.87
2019-03-12T10:32:03.220Z,2.80
2019-03-12T10:35:05.938Z,2.53
2019-03-12T10:38:17.617Z,2.70
2019-03-12T10:41:18.995Z,3.20
2019-03-12T10:44:21.245Z,3.57
2019-03-12T10:47:17.256Z,2.33
2019-03-12T10:50:09.192Z,2.50
2019-03-12T10:53:00.576Z,2.37
2019-03-12T10:55:52.570Z,2.37
2019-03-12T10:58:44.738Z,2.40
2019-03-12T11:01:36.151Z,2.97
2019-03-12T11:04:27.715Z,2.57
2019-03-12T11:07:19.399Z,2.67
2019-03-12T11:10:11.896Z,2.43
2019-03-12T11:13:03.578Z,2.93
2019-03-12T11:15:56.011Z,2.57
2019-03-12T11:18:48.019Z,2.20
2019-03-12T11:21:39.410Z,1.70
2019-03-12T11:24:31.097Z,2.40
2019-03-12T11:27:22.569Z,2.70
2019-03-12T11:30:17.265Z,2.50
2019-03-12T11:33:08.860Z,2.30
2019-03-12T11:36:00.149Z,2.47
2019-03-12T11:38:51.809Z,2.47
2019-03-12T11:41:44.752Z,2.20
2019-03-12T11:44:36.187Z,2.50
2019-03-12T11:47:27.654Z,2.03
2019-03-12T11:50:20.997Z,2.27
2019-03-12T11:53:12.745Z,2.70
2019-03-12T11:56:04.321Z,2.63
2019-03-12T11:58:55.762Z,2.20
2019-03-12T12:01:47.519Z,2.17
2019-03-12T12:04:38.855Z,1.63
2019-03-12T12:07:30.477Z,2.23
2019-03-12T12:10:22.211Z,2.00
2019-03-12T12:13:13.934Z,2.03
2019-03-12T12:16:05.723Z,2.73
2019-03-12T12:18:57.332Z,2.80
2019-03-12T12:21:48.773Z,2.50
2019-03-12T12:24:40.560Z,2.00
2019-03-12T12:27:31.940Z,2.00
2019-03-12T12:30:23.676Z,2.27
2019-03-12T12:33:15.196Z,2.70
2019-03-12T12:36:06.585Z,2.20
2019-03-12T12:38:57.903Z,2.20
2019-03-12T12:41:49.487Z,2.17
2019-03-12T12:44:41.784Z,2.03
2019-03-12T12:47:33.278Z,2.60
2019-03-12T12:50:24.979Z,2.10
2019-03-12T12:53:17.278Z,2.83
2019-03-12T12:56:09.148Z,2.60
2019-03-12T12:59:00.715Z,2.73
2019-03-12T13:01:52.289Z,2.53
2019-03-12T13:04:44.368Z,2.50
2019-03-12T13:07:35.976Z,2.47
2019-03-12T13:10:27.297Z,2.87
2019-03-12T13:13:18.713Z,2.60
2019-03-12T13:16:24.081Z,2.80
2019-03-12T13:19:04.584Z,2.60
2019-03-12T13:21:57.060Z,2.57
2019-03-12T13:24:50.092Z,3.27
2019-03-12T13:27:42.862Z,2.60
2019-03-12T13:30:34.680Z,2.63
2019-03-12T13:33:26.977Z,2.50
2019-03-12T13:36:19.284Z,2.60
2019-03-12T13:39:11.077Z,2.90
2019-03-12T13:42:04.116Z,2.50
2019-03-12T13:44:55.756Z,2.90
2019-03-12T13:47:48.291Z,2.60
2019-03-12T13:50:40.365Z,2.93
2019-03-12T13:53:31.862Z,2.63
2019-03-12T13:56:23.168Z,2.40
2019-03-12T13:59:14.813Z,2.40
2019-03-12T14:02:06.284Z,2.40
2019-03-12T14:04:57.810Z,2.57
2019-03-12T14:07:49.416Z,2.60
2019-03-12T14:10:40.768Z,2.80
2019-03-12T14:13:32.318Z,2.83
2019-03-12T14:16:23.792Z,2.73
2019-03-12T14:19:15.876Z,2.83
2019-03-12T14:22:09.955Z,2.80
2019-03-12T14:25:01.637Z,2.53
2019-03-12T14:27:53.320Z,3.20
2019-03-12T14:30:44.693Z,2.60
2019-03-12T14:33:36.340Z,2.97
2019-03-12T14:36:28.972Z,2.57
2019-03-12T14:39:20.767Z,3.27
2019-03-12T14:42:12.359Z,2.90
2019-03-12T14:45:03.800Z,3.23
2019-03-12T14:47:55.337Z,3.17
2019-03-12T14:50:48.061Z,3.07
2019-03-12T14:53:40.093Z,3.40
2019-03-12T14:56:32.604Z,2.97
2019-03-12T14:59:24.739Z,3.00
2019-03-12T15:02:16.035Z,2.70
2019-03-12T15:05:07.932Z,2.97
2019-03-12T15:08:00.303Z,2.87
2019-03-12T15:10:51.681Z,3.30
2019-03-12T15:13:43.898Z,2.47
2019-03-12T15:16:35.345Z,2.57
2019-03-12T15:19:26.720Z,3.43
2019-03-12T15:22:18.058Z,2.90
2019-03-12T15:25:10.295Z,2.70
2019-03-12T15:28:02.599Z,2.70
2019-03-12T15:30:53.926Z,3.33
2019-03-12T15:33:45.370Z,3.03
2019-03-12T15:36:36.981Z,3.60
2019-03-12T15:39:28.647Z,3.47
2019-03-12T15:42:20.849Z,4.33
2019-03-12T15:45:12.783Z,2.73
2019-03-12T15:48:04.438Z,2.87
2019-03-12T15:50:55.771Z,3.47
2019-03-12T15:53:47.642Z,3.27
2019-03-12T15:56:39.384Z,3.47
2019-03-12T15:59:31.071Z,3.67
2019-03-12T16:02:23.440Z,2.80
2019-03-12T16:05:14.714Z,2.97
2019-03-12T16:08:07.007Z,3.07
2019-03-12T16:10:58.826Z,3.20
2019-03-12T16:13:50.401Z,2.70
2019-03-12T16:16:41.879Z,3.20
2019-03-12T16:19:33.289Z,3.20
2019-03-12T16:22:24.903Z,2.93
2019-03-12T16:25:16.254Z,3.20
2019-03-12T16:28:07.615Z,2.80
2019-03-12T16:30:59.363Z,3.80
2019-03-12T16:33:53.069Z,3.93
2019-03-12T16:36:44.608Z,2.97
2019-03-12T16:39:36.240Z,3.23
2019-03-12T16:42:34.935Z,3.13
2019-03-12T16:45:20.884Z,3.00
2019-03-12T16:48:12.559Z,2.87
2019-03-12T16:51:09.845Z,2.83
2019-03-12T16:54:01.536Z,2.80
2019-03-12T16:56:53.083Z,2.80
2019-03-12T16:59:45.439Z,2.83
2019-03-12T17:02:36.946Z,3.00
2019-03-12T17:05:28.750Z,2.80
2019-03-12T17:08:20.242Z,2.70
2019-03-12T17:11:13.020Z,3.10
2019-03-12T17:14:05.614Z,2.77
2019-03-12T17:16:58.139Z,2.87
2019-03-12T17:19:50.037Z,3.10
2019-03-12T17:22:41.520Z,2.80
2019-03-12T17:25:32.998Z,2.63
2019-03-12T17:28:24.507Z,3.10
2019-03-12T17:31:16.057Z,2.90
2019-03-12T17:34:07.603Z,3.37
2019-03-12T17:36:59.048Z,2.97
2019-03-12T17:39:50.490Z,2.67
2019-03-12T17:42:42.206Z,2.50
2019-03-12T17:45:33.829Z,2.90
2019-03-12T17:48:25.824Z,0.60
2019-03-12T17:51:18.091Z,0.50
2019-03-12T17:54:09.845Z,0.73
2019-03-12T17:57:01.322Z,1.00
2019-03-12T17:59:52.799Z,1.10
2019-03-12T18:02:44.413Z,1.00
2019-03-12T18:05:36.729Z,0.70
2019-03-12T18:08:29.711Z,0.63
2019-03-12T18:11:21.820Z,1.13
2019-03-12T18:14:15.789Z,0.70
2019-03-12T18:17:08.913Z,1.37
2019-03-12T18:20:00.569Z,0.90
2019-03-12T18:22:52.173Z,1.00
2019-03-12T18:25:44.794Z,1.30
2019-03-12T18:28:37.361Z,1.00
2019-03-12T18:31:29.387Z,1.43
2019-03-12T18:34:23.855Z,1.87
2019-03-12T18:37:18.224Z,1.77
2019-03-12T18:40:19.271Z,1.90
2019-03-12T18:43:14.765Z,2.50
2019-03-12T18:46:07.215Z,1.70
2019-03-12T18:49:00.089Z,2.03
2019-03-12T18:51:57.308Z,1.30
2019-03-12T18:54:49.330Z,1.40
2019-03-12T18:57:41.489Z,1.63
2019-03-12T19:00:34.771Z,1.87
2019-03-12T19:03:26.912Z,2.90
2019-03-12T19:06:18.682Z,2.30
2019-03-12T19:09:11.492Z,2.37
2019-03-12T19:12:03.681Z,2.73
2019-03-12T19:14:56.848Z,2.87
2019-03-12T19:17:48.498Z,2.30
2019-03-12T19:20:41.007Z,1.50
2019-03-12T19:23:32.687Z,1.70
2019-03-12T19:26:24.467Z,1.33
2019-03-12T19:29:16.915Z,1.57
2019-03-12T19:32:16.467Z,1.10
2019-03-12T19:35:12.499Z,0.93
2019-03-12T19:38:04.281Z,1.50
2019-03-12T19:40:56.307Z,1.50
2019-03-12T19:43:47.987Z,1.10
2019-03-12T19:46:39.567Z,0.90
2019-03-12T19:49:32.162Z,2.13
2019-03-12T19:52:24.159Z,1.30
2019-03-12T19:55:18.565Z,0.80
2019-03-12T19:58:10.123Z,0.70
2019-03-12T20:01:03.348Z,0.70
2019-03-12T20:03:54.526Z,1.30
2019-03-12T20:06:46.716Z,0.77
2019-03-12T20:10:46.278Z,1.50
2019-03-12T20:14:56.538Z,1.00
2019-03-12T20:18:59.890Z,1.30
2019-03-12T20:23:06.946Z,1.37
2019-03-12T20:26:54.540Z,1.30
2019-03-12T20:31:07.543Z,1.10
2019-03-12T20:35:12.585Z,1.40
2019-03-12T20:39:23.837Z,1.20
2019-03-12T20:43:14.312Z,1.80
2019-03-12T20:47:11.507Z,1.40
2019-03-12T20:51:28.075Z,1.07
2019-03-12T20:55:26.417Z,1.80
2019-03-12T20:59:28.931Z,1.90
2019-03-12T21:03:19.325Z,1.87
2019-03-12T21:07:06.531Z,1.00
2019-03-12T21:10:51.338Z,1.10
2019-03-12T21:14:37.360Z,1.50
2019-03-12T21:18:05.111Z,1.43
2019-03-12T21:21:47.027Z,1.20
2019-03-12T21:25:56.879Z,1.20
2019-03-12T21:29:15.539Z,1.50
2019-03-12T21:32:07.037Z,1.23
2019-03-12T21:34:58.626Z,1.40
2019-03-12T21:37:50.013Z,1.60
2019-03-12T21:40:41.363Z,1.53
2019-03-12T21:43:32.716Z,1.40
2019-03-12T21:46:24.290Z,1.37
2019-03-12T21:49:15.877Z,1.63
2019-03-12T21:52:07.883Z,1.37
2019-03-12T21:54:59.234Z,1.47
2019-03-12T21:57:50.551Z,0.97
2019-03-12T22:00:42.107Z,1.10
2019-03-12T22:03:34.211Z,2.03
2019-03-12T22:06:25.478Z,1.00
2019-03-12T22:09:17.186Z,1.27
2019-03-12T22:12:09.570Z,1.17
2019-03-12T22:15:01.006Z,1.20
2019-03-12T22:17:54.374Z,1.20
2019-03-12T22:20:46.180Z,1.17
2019-03-12T22:23:44.838Z,1.10
2019-03-12T22:26:37.243Z,1.23
2019-03-12T22:29:28.583Z,1.20
2019-03-12T22:32:21.293Z,1.40
2019-03-12T22:35:12.719Z,1.10
2019-03-12T22:38:04.319Z,1.00
2019-03-12T22:40:55.735Z,1.30
2019-03-12T22:43:47.107Z,1.20
2019-03-12T22:46:38.711Z,1.23
2019-03-12T22:49:30.461Z,1.37
2019-03-12T22:52:21.990Z,1.47
2019-03-12T22:55:13.574Z,1.23
2019-03-12T22:58:05.559Z,1.20
2019-03-12T23:01:15.007Z,1.40
2019-03-12T23:04:24.792Z,1.80
2019-03-12T23:07:34.450Z,1.10
2019-03-12T23:10:27.504Z,1.33
2019-03-12T23:13:18.973Z,1.43
2019-03-12T23:16:11.243Z,1.13
2019-03-12T23:19:02.931Z,1.50
2019-03-12T23:21:54.392Z,1.87
2019-03-12T23:24:46.534Z,1.93
2019-03-12T23:27:38.122Z,1.73
2019-03-12T23:30:29.547Z,1.60
2019-03-12T23:33:21.659Z,1.87
2019-03-12T23:36:13.892Z,2.30
2019-03-12T23:39:08.514Z,2.07
2019-03-12T23:42:01.234Z,2.17
2019-03-12T23:44:52.609Z,1.50
2019-03-12T23:47:43.974Z,2.67
2019-03-12T23:50:35.762Z,2.13
2019-03-12T23:53:27.107Z,2.00
2019-03-12T23:56:18.693Z,2.03
2019-03-12T23:59:09.978Z,1.40
